Time;durP1;ratioP1;P1;durP2;ratioP2;P2;SDS_P1;SDS_P2;PMS_P1;PMS_P2;Temp;Humidity;BMP_temperature;BMP_pressure;BME280_temperature;BME280_humidity;BME280_pressure;Samples;Min_cycle;Max_cycle;Signal;HPM_P1;HPM_P2
2022/03/29 00:00:17;;;;;;;11.7;7.95;;;;;;;5.15;34.80078;95019.51;;;;
2022/03/29 00:01:17;;;;;;;11.7;7.95;;;;;;;5.15;34.80078;95019.51;;;;
2022/03/29 00:02:18;;;;;;;11.7;7.95;;;;;;;5.15;34.80078;95019.51;;;;
2022/03/29 00:03:18;;;;;;;11.7;7.95;;;;;;;5.15;34.80078;95019.51;;;;
2022/03/29 00:04:19;;;;;;;11.7;7.95;;;;;;;5.15;34.80078;95019.51;;;;
2022/03/29 00:05:19;;;;;;;11.7;7.95;;;;;;;5.15;34.80078;95019.51;;;;
2022/03/29 00:06:20;;;;;;;11.7;7.95;;;;;;;5.15;34.80078;95019.51;;;;
2022/03/29 00:07:21;;;;;;;11.7;7.95;;;;;;;5.15;34.80078;95019.51;;;;
2022/03/29 00:08:22;;;;;;;11.7;7.95;;;;;;;5.15;34.80078;95019.51;;;;
2022/03/29 00:09:22;;;;;;;14.55;7.550001;;;;;;;5.03;35.07813;95006.06;;;;
2022/03/29 00:10:23;;;;;;;14.55;7.550001;;;;;;;5.03;35.07813;95006.06;;;;
2022/03/29 00:11:24;;;;;;;14.55;7.550001;;;;;;;5.03;35.07813;95006.06;;;;
2022/03/29 00:12:24;;;;;;;14.55;7.550001;;;;;;;5.03;35.07813;95006.06;;;;
2022/03/29 00:13:25;;;;;;;14.55;7.550001;;;;;;;5.03;35.07813;95006.06;;;;
2022/03/29 00:14:25;;;;;;;14.55;7.550001;;;;;;;5.03;35.07813;95006.06;;;;
2022/03/29 00:15:26;;;;;;;14.55;7.550001;;;;;;;5.03;35.07813;95006.06;;;;
2022/03/29 00:16:27;;;;;;;14.55;7.550001;;;;;;;5.03;35.07813;95006.06;;;;
2022/03/29 00:17:27;;;;;;;14.55;7.550001;;;;;;;5.03;35.07813;95006.06;;;;
2022/03/29 00:18:28;;;;;;;14.55;7.550001;;;;;;;5.03;35.07813;95006.06;;;;
2022/03/29 00:19:29;;;;;;;14.4;8.149999;;;;;;;4.91;35.38965;95001.97;;;;
2022/03/29 00:20:30;;;;;;;14.4;8.149999;;;;;;;4.91;35.38965;95001.97;;;;
2022/03/29 00:21:31;;;;;;;14.4;8.149999;;;;;;;4.91;35.38965;95001.97;;;;
2022/03/29 00:22:31;;;;;;;14.4;8.149999;;;;;;;4.91;35.38965;95001.97;;;;
2022/03/29 00:23:32;;;;;;;14.4;8.149999;;;;;;;4.91;35.38965;95001.97;;;;
2022/03/29 00:24:32;;;;;;;14.4;8.149999;;;;;;;4.91;35.38965;95001.97;;;;
2022/03/29 00:25:33;;;;;;;14.4;8.149999;;;;;;;4.91;35.38965;95001.97;;;;
2022/03/29 00:26:34;;;;;;;14.4;8.149999;;;;;;;4.91;35.38965;95001.97;;;;
2022/03/29 00:27:35;;;;;;;14.4;8.149999;;;;;;;4.91;35.38965;95001.97;;;;
2022/03/29 00:28:36;;;;;;;14.4;8.149999;;;;;;;4.91;35.38965;95001.97;;;;
2022/03/29 00:29:37;;;;;;;14.4;8.149999;;;;;;;4.91;35.38965;95001.97;;;;
2022/03/29 00:30:38;;;;;;;13.35;7.849999;;;;;;;4.9;35.5918;94987.77;;;;
2022/03/29 00:31:39;;;;;;;13.35;7.849999;;;;;;;4.9;35.5918;94987.77;;;;
2022/03/29 00:32:40;;;;;;;13.35;7.849999;;;;;;;4.9;35.5918;94987.77;;;;
2022/03/29 00:33:41;;;;;;;13.35;7.849999;;;;;;;4.9;35.5918;94987.77;;;;
2022/03/29 00:34:42;;;;;;;13.35;7.849999;;;;;;;4.9;35.5918;94987.77;;;;
2022/03/29 00:35:42;;;;;;;13.35;7.849999;;;;;;;4.9;35.5918;94987.77;;;;
2022/03/29 00:36:43;;;;;;;13.35;7.849999;;;;;;;4.9;35.5918;94987.77;;;;
2022/03/29 00:37:44;;;;;;;13.35;7.849999;;;;;;;4.9;35.5918;94987.77;;;;
2022/03/29 00:38:46;;;;;;;13.35;7.849999;;;;;;;4.9;35.5918;94987.77;;;;
2022/03/29 00:39:47;;;;;;;13.35;7.849999;;;;;;;4.9;35.5918;94987.77;;;;
2022/03/29 00:40:47;;;;;;;13.45;8.1;;;;;;;4.8;35.83984;94982.42;;;;
2022/03/29 00:41:48;;;;;;;13.45;8.1;;;;;;;4.8;35.83984;94982.42;;;;
2022/03/29 00:42:48;;;;;;;13.45;8.1;;;;;;;4.8;35.83984;94982.42;;;;
2022/03/29 00:43:49;;;;;;;13.45;8.1;;;;;;;4.8;35.83984;94982.42;;;;
2022/03/29 00:44:49;;;;;;;13.45;8.1;;;;;;;4.8;35.83984;94982.42;;;;
2022/03/29 00:45:50;;;;;;;13.45;8.1;;;;;;;4.8;35.83984;94982.42;;;;
2022/03/29 00:46:50;;;;;;;13.45;8.1;;;;;;;4.8;35.83984;94982.42;;;;
2022/03/29 00:47:51;;;;;;;13.45;8.1;;;;;;;4.8;35.83984;94982.42;;;;
2022/03/29 00:48:51;;;;;;;13.45;8.1;;;;;;;4.8;35.83984;94982.42;;;;
2022/03/29 00:49:52;;;;;;;13.45;8.1;;;;;;;4.8;35.83984;94982.42;;;;
2022/03/29 00:50:52;;;;;;;13.45;8.1;;;;;;;4.8;35.83984;94982.42;;;;
2022/03/29 00:51:55;;;;;;;13.4;8.550001;;;;;;;4.74;36.14453;94975.25;;;;
2022/03/29 00:52:56;;;;;;;13.4;8.550001;;;;;;;4.74;36.14453;94975.25;;;;
2022/03/29 00:53:57;;;;;;;13.4;8.550001;;;;;;;4.74;36.14453;94975.25;;;;
2022/03/29 00:54:59;;;;;;;13.4;8.550001;;;;;;;4.74;36.14453;94975.25;;;;
2022/03/29 00:56:02;;;;;;;13.4;8.550001;;;;;;;4.74;36.14453;94975.25;;;;
2022/03/29 00:57:03;;;;;;;13.4;8.550001;;;;;;;4.74;36.14453;94975.25;;;;
2022/03/29 00:58:06;;;;;;;13.4;8.550001;;;;;;;4.74;36.14453;94975.25;;;;
2022/03/29 00:59:07;;;;;;;13.4;8.550001;;;;;;;4.74;36.14453;94975.25;;;;
2022/03/29 01:00:07;;;;;;;13.4;8.550001;;;;;;;4.74;36.14453;94975.25;;;;
2022/03/29 01:01:10;;;;;;;13.4;8.550001;;;;;;;4.74;36.14453;94975.25;;;;
2022/03/29 01:02:12;;;;;;;14.45;8.349998;;;;;;;4.82;36.41797;94964.43;;;;
2022/03/29 01:03:13;;;;;;;14.45;8.349998;;;;;;;4.82;36.41797;94964.43;;;;
2022/03/29 01:04:13;;;;;;;14.45;8.349998;;;;;;;4.82;36.41797;94964.43;;;;
2022/03/29 01:05:14;;;;;;;14.45;8.349998;;;;;;;4.82;36.41797;94964.43;;;;
2022/03/29 01:06:14;;;;;;;14.45;8.349998;;;;;;;4.82;36.41797;94964.43;;;;
2022/03/29 01:07:15;;;;;;;14.45;8.349998;;;;;;;4.82;36.41797;94964.43;;;;
2022/03/29 01:08:15;;;;;;;14.45;8.349998;;;;;;;4.82;36.41797;94964.43;;;;
2022/03/29 01:09:16;;;;;;;14.45;8.349998;;;;;;;4.82;36.41797;94964.43;;;;
2022/03/29 01:10:16;;;;;;;14.45;8.349998;;;;;;;4.82;36.41797;94964.43;;;;
2022/03/29 01:11:17;;;;;;;14.45;8.349998;;;;;;;4.82;36.41797;94964.43;;;;
2022/03/29 01:12:18;;;;;;;14.45;8.349998;;;;;;;4.82;36.41797;94964.43;;;;
2022/03/29 01:13:18;;;;;;;15.4;8.25;;;;;;;4.93;36.56641;94958.84;;;;
2022/03/29 01:14:19;;;;;;;15.4;8.25;;;;;;;4.93;36.56641;94958.84;;;;
2022/03/29 01:15:20;;;;;;;15.4;8.25;;;;;;;4.93;36.56641;94958.84;;;;
2022/03/29 01:21:36;;;;;;;15.4;8.25;;;;;;;4.93;36.56641;94958.84;;;;
2022/03/29 01:22:39;;;;;;;15.4;8.25;;;;;;;4.93;36.56641;94958.84;;;;
2022/03/29 01:23:42;;;;;;;14.6;8.25;;;;;;;4.87;36.74219;94943.64;;;;
2022/03/29 01:24:43;;;;;;;14.6;8.25;;;;;;;4.87;36.74219;94943.64;;;;
2022/03/29 01:25:44;;;;;;;14.6;8.25;;;;;;;4.87;36.74219;94943.64;;;;
2022/03/29 01:26:45;;;;;;;14.6;8.25;;;;;;;4.87;36.74219;94943.64;;;;
2022/03/29 01:27:47;;;;;;;14.6;8.25;;;;;;;4.87;36.74219;94943.64;;;;
2022/03/29 01:28:50;;;;;;;14.6;8.25;;;;;;;4.87;36.74219;94943.64;;;;
2022/03/29 01:29:50;;;;;;;14.6;8.25;;;;;;;4.87;36.74219;94943.64;;;;
2022/03/29 01:30:54;;;;;;;14.6;8.25;;;;;;;4.87;36.74219;94943.64;;;;
2022/03/29 01:31:55;;;;;;;14.6;8.25;;;;;;;4.87;36.74219;94943.64;;;;
2022/03/29 01:32:57;;;;;;;14.6;8.25;;;;;;;4.87;36.74219;94943.64;;;;
2022/03/29 01:34:01;;;;;;;14.6;8.25;;;;;;;4.87;36.74219;94943.64;;;;
2022/03/29 01:35:03;;;;;;;14.6;8.25;;;;;;;4.87;36.74219;94943.64;;;;
2022/03/29 01:36:06;;;;;;;14.6;8.25;;;;;;;4.87;36.74219;94943.64;;;;
2022/03/29 01:37:07;;;;;;;14.6;8.25;;;;;;;4.87;36.74219;94943.64;;;;
2022/03/29 01:38:08;;;;;;;14.6;8.25;;;;;;;4.87;36.74219;94943.64;;;;
2022/03/29 01:39:10;;;;;;;14.6;8.25;;;;;;;4.87;36.74219;94943.64;;;;
2022/03/29 01:40:12;;;;;;;14.6;8.25;;;;;;;4.87;36.74219;94943.64;;;;
2022/03/29 01:41:15;;;;;;;14.6;8.25;;;;;;;4.87;36.74219;94943.64;;;;
2022/03/29 01:42:15;;;;;;;14.6;8.25;;;;;;;4.87;36.74219;94943.64;;;;
2022/03/29 01:43:17;;;;;;;14.6;8.25;;;;;;;4.87;36.74219;94943.64;;;;
2022/03/29 01:44:18;;;;;;;14.6;8.25;;;;;;;4.87;36.74219;94943.64;;;;
2022/03/29 01:45:18;;;;;;;14.7;8.599999;;;;;;;4.95;37.22949;94909.16;;;;
2022/03/29 01:46:21;;;;;;;14.7;8.599999;;;;;;;4.95;37.22949;94909.16;;;;
2022/03/29 01:47:22;;;;;;;14.7;8.599999;;;;;;;4.95;37.22949;94909.16;;;;
2022/03/29 01:48:24;;;;;;;14.7;8.599999;;;;;;;4.95;37.22949;94909.16;;;;
2022/03/29 01:49:25;;;;;;;14.7;8.599999;;;;;;;4.95;37.22949;94909.16;;;;
2022/03/29 01:50:26;;;;;;;14.7;8.599999;;;;;;;4.95;37.22949;94909.16;;;;
2022/03/29 01:51:27;;;;;;;14.7;8.599999;;;;;;;4.95;37.22949;94909.16;;;;
2022/03/29 01:52:28;;;;;;;14.7;8.599999;;;;;;;4.95;37.22949;94909.16;;;;
2022/03/29 01:53:28;;;;;;;14.7;8.599999;;;;;;;4.95;37.22949;94909.16;;;;
2022/03/29 01:54:28;;;;;;;14.7;8.599999;;;;;;;4.95;37.22949;94909.16;;;;
2022/03/29 01:55:30;;;;;;;13.6;8.75;;;;;;;5.01;37.5332;94896.26;;;;
2022/03/29 01:56:31;;;;;;;13.6;8.75;;;;;;;5.01;37.5332;94896.26;;;;
2022/03/29 01:57:33;;;;;;;13.6;8.75;;;;;;;5.01;37.5332;94896.26;;;;
2022/03/29 01:58:34;;;;;;;13.6;8.75;;;;;;;5.01;37.5332;94896.26;;;;
2022/03/29 02:00:30;;;;;;;13.6;8.75;;;;;;;5.01;37.5332;94896.26;;;;
2022/03/29 02:01:32;;;;;;;13.6;8.75;;;;;;;5.01;37.5332;94896.26;;;;
2022/03/29 02:02:38;;;;;;;13.6;8.75;;;;;;;5.01;37.5332;94896.26;;;;
2022/03/29 02:03:39;;;;;;;13.6;8.75;;;;;;;5.01;37.5332;94896.26;;;;
2022/03/29 02:04:39;;;;;;;13.6;8.75;;;;;;;5.01;37.5332;94896.26;;;;
2022/03/29 02:05:40;;;;;;;13.6;8.75;;;;;;;5.01;37.5332;94896.26;;;;
2022/03/29 02:06:40;;;;;;;14.85;8.400002;;;;;;;5.12;37.82129;94876.37;;;;
2022/03/29 02:07:41;;;;;;;14.85;8.400002;;;;;;;5.12;37.82129;94876.37;;;;
2022/03/29 02:08:41;;;;;;;14.85;8.400002;;;;;;;5.12;37.82129;94876.37;;;;
2022/03/29 02:09:42;;;;;;;14.85;8.400002;;;;;;;5.12;37.82129;94876.37;;;;
2022/03/29 02:10:43;;;;;;;14.85;8.400002;;;;;;;5.12;37.82129;94876.37;;;;
2022/03/29 02:11:43;;;;;;;14.85;8.400002;;;;;;;5.12;37.82129;94876.37;;;;
2022/03/29 02:12:44;;;;;;;14.85;8.400002;;;;;;;5.12;37.82129;94876.37;;;;
2022/03/29 02:13:45;;;;;;;14.85;8.400002;;;;;;;5.12;37.82129;94876.37;;;;
2022/03/29 02:14:46;;;;;;;14.85;8.400002;;;;;;;5.12;37.82129;94876.37;;;;
2022/03/29 02:15:46;;;;;;;14.85;8.400002;;;;;;;5.12;37.82129;94876.37;;;;
2022/03/29 02:16:48;;;;;;;13.5;8.35;;;;;;;5.19;38.00977;94874.9;;;;
2022/03/29 02:17:48;;;;;;;13.5;8.35;;;;;;;5.19;38.00977;94874.9;;;;
2022/03/29 02:18:49;;;;;;;13.5;8.35;;;;;;;5.19;38.00977;94874.9;;;;
2022/03/29 02:19:50;;;;;;;13.5;8.35;;;;;;;5.19;38.00977;94874.9;;;;
2022/03/29 02:20:50;;;;;;;13.5;8.35;;;;;;;5.19;38.00977;94874.9;;;;
2022/03/29 02:21:51;;;;;;;13.5;8.35;;;;;;;5.19;38.00977;94874.9;;;;
2022/03/29 02:22:51;;;;;;;13.5;8.35;;;;;;;5.19;38.00977;94874.9;;;;
2022/03/29 02:23:52;;;;;;;13.5;8.35;;;;;;;5.19;38.00977;94874.9;;;;
2022/03/29 02:24:52;;;;;;;13.5;8.35;;;;;;;5.19;38.00977;94874.9;;;;
2022/03/29 02:25:53;;;;;;;13.5;8.35;;;;;;;5.19;38.00977;94874.9;;;;
2022/03/29 02:26:53;;;;;;;13.5;8.35;;;;;;;5.19;38.00977;94874.9;;;;
2022/03/29 02:27:55;;;;;;;11.95;8.200002;;;;;;;5.24;38.30176;94863.12;;;;
2022/03/29 02:28:56;;;;;;;11.95;8.200002;;;;;;;5.24;38.30176;94863.12;;;;
2022/03/29 02:29:56;;;;;;;11.95;8.200002;;;;;;;5.24;38.30176;94863.12;;;;
2022/03/29 02:30:57;;;;;;;11.95;8.200002;;;;;;;5.24;38.30176;94863.12;;;;
2022/03/29 02:31:57;;;;;;;11.95;8.200002;;;;;;;5.24;38.30176;94863.12;;;;
2022/03/29 02:32:58;;;;;;;11.95;8.200002;;;;;;;5.24;38.30176;94863.12;;;;
2022/03/29 02:33:58;;;;;;;11.95;8.200002;;;;;;;5.24;38.30176;94863.12;;;;
2022/03/29 02:34:58;;;;;;;11.95;8.200002;;;;;;;5.24;38.30176;94863.12;;;;
2022/03/29 02:35:59;;;;;;;11.95;8.200002;;;;;;;5.24;38.30176;94863.12;;;;
2022/03/29 02:37:00;;;;;;;11.95;8.200002;;;;;;;5.24;38.30176;94863.12;;;;
2022/03/29 02:38:00;;;;;;;11.95;8.200002;;;;;;;5.24;38.30176;94863.12;;;;
2022/03/29 02:39:01;;;;;;;15.35;8.950001;;;;;;;5.19;38.50098;94848.14;;;;
2022/03/29 02:40:03;;;;;;;15.35;8.950001;;;;;;;5.19;38.50098;94848.14;;;;
2022/03/29 02:41:05;;;;;;;15.35;8.950001;;;;;;;5.19;38.50098;94848.14;;;;
2022/03/29 02:42:06;;;;;;;15.35;8.950001;;;;;;;5.19;38.50098;94848.14;;;;
2022/03/29 02:43:07;;;;;;;15.35;8.950001;;;;;;;5.19;38.50098;94848.14;;;;
2022/03/29 02:44:07;;;;;;;15.35;8.950001;;;;;;;5.19;38.50098;94848.14;;;;
2022/03/29 02:45:09;;;;;;;15.35;8.950001;;;;;;;5.19;38.50098;94848.14;;;;
2022/03/29 02:46:14;;;;;;;15.35;8.950001;;;;;;;5.19;38.50098;94848.14;;;;
2022/03/29 02:47:14;;;;;;;15.35;8.950001;;;;;;;5.19;38.50098;94848.14;;;;
2022/03/29 02:48:15;;;;;;;15.35;8.950001;;;;;;;5.19;38.50098;94848.14;;;;
2022/03/29 02:49:16;;;;;;;12.45;8.5;;;;;;;5.13;38.73047;94840.12;;;;
2022/03/29 02:50:17;;;;;;;12.45;8.5;;;;;;;5.13;38.73047;94840.12;;;;
2022/03/29 02:51:19;;;;;;;12.45;8.5;;;;;;;5.13;38.73047;94840.12;;;;
2022/03/29 02:52:19;;;;;;;12.45;8.5;;;;;;;5.13;38.73047;94840.12;;;;
2022/03/29 02:53:20;;;;;;;12.45;8.5;;;;;;;5.13;38.73047;94840.12;;;;
2022/03/29 02:54:20;;;;;;;12.45;8.5;;;;;;;5.13;38.73047;94840.12;;;;
2022/03/29 02:55:21;;;;;;;12.45;8.5;;;;;;;5.13;38.73047;94840.12;;;;
2022/03/29 02:56:23;;;;;;;12.45;8.5;;;;;;;5.13;38.73047;94840.12;;;;
2022/03/29 02:57:23;;;;;;;12.45;8.5;;;;;;;5.13;38.73047;94840.12;;;;
2022/03/29 02:58:24;;;;;;;12.45;8.5;;;;;;;5.13;38.73047;94840.12;;;;
2022/03/29 02:59:24;;;;;;;12.45;8.5;;;;;;;5.13;38.73047;94840.12;;;;
2022/03/29 03:00:25;;;;;;;13.2;8.9;;;;;;;5;38.9209;94832.56;;;;
2022/03/29 03:01:28;;;;;;;13.2;8.9;;;;;;;5;38.9209;94832.56;;;;
2022/03/29 03:02:29;;;;;;;13.2;8.9;;;;;;;5;38.9209;94832.56;;;;
2022/03/29 03:03:31;;;;;;;13.2;8.9;;;;;;;5;38.9209;94832.56;;;;
2022/03/29 03:04:32;;;;;;;13.2;8.9;;;;;;;5;38.9209;94832.56;;;;
2022/03/29 03:05:32;;;;;;;13.2;8.9;;;;;;;5;38.9209;94832.56;;;;
2022/03/29 03:06:33;;;;;;;13.2;8.9;;;;;;;5;38.9209;94832.56;;;;
2022/03/29 03:07:34;;;;;;;13.2;8.9;;;;;;;5;38.9209;94832.56;;;;
2022/03/29 03:08:34;;;;;;;13.2;8.9;;;;;;;5;38.9209;94832.56;;;;
2022/03/29 03:09:35;;;;;;;13.2;8.9;;;;;;;5;38.9209;94832.56;;;;
2022/03/29 03:10:35;;;;;;;15;8.75;;;;;;;4.84;39.17285;94829.03;;;;
2022/03/29 03:11:36;;;;;;;15;8.75;;;;;;;4.84;39.17285;94829.03;;;;
2022/03/29 03:12:37;;;;;;;15;8.75;;;;;;;4.84;39.17285;94829.03;;;;
2022/03/29 03:13:38;;;;;;;15;8.75;;;;;;;4.84;39.17285;94829.03;;;;
2022/03/29 03:14:39;;;;;;;15;8.75;;;;;;;4.84;39.17285;94829.03;;;;
2022/03/29 03:15:39;;;;;;;15;8.75;;;;;;;4.84;39.17285;94829.03;;;;
2022/03/29 03:16:40;;;;;;;15;8.75;;;;;;;4.84;39.17285;94829.03;;;;
2022/03/29 03:17:40;;;;;;;15;8.75;;;;;;;4.84;39.17285;94829.03;;;;
2022/03/29 03:18:41;;;;;;;15;8.75;;;;;;;4.84;39.17285;94829.03;;;;
2022/03/29 03:19:43;;;;;;;15;8.75;;;;;;;4.84;39.17285;94829.03;;;;
2022/03/29 03:20:44;;;;;;;15;8.75;;;;;;;4.84;39.17285;94829.03;;;;
2022/03/29 03:21:45;;;;;;;13.15;8.35;;;;;;;4.71;39.4502;94823.22;;;;
2022/03/29 03:22:45;;;;;;;13.15;8.35;;;;;;;4.71;39.4502;94823.22;;;;
2022/03/29 03:23:46;;;;;;;13.15;8.35;;;;;;;4.71;39.4502;94823.22;;;;
2022/03/29 03:24:46;;;;;;;13.15;8.35;;;;;;;4.71;39.4502;94823.22;;;;
2022/03/29 03:25:47;;;;;;;13.15;8.35;;;;;;;4.71;39.4502;94823.22;;;;
2022/03/29 03:26:48;;;;;;;13.15;8.35;;;;;;;4.71;39.4502;94823.22;;;;
2022/03/29 03:27:48;;;;;;;13.15;8.35;;;;;;;4.71;39.4502;94823.22;;;;
2022/03/29 03:28:49;;;;;;;13.15;8.35;;;;;;;4.71;39.4502;94823.22;;;;
2022/03/29 03:29:49;;;;;;;13.15;8.35;;;;;;;4.71;39.4502;94823.22;;;;
2022/03/29 03:30:53;;;;;;;13.15;8.35;;;;;;;4.71;39.4502;94823.22;;;;
2022/03/29 03:31:53;;;;;;;14.35;8.799999;;;;;;;4.74;39.57031;94807.7;;;;
2022/03/29 03:32:54;;;;;;;14.35;8.799999;;;;;;;4.74;39.57031;94807.7;;;;
2022/03/29 03:33:54;;;;;;;14.35;8.799999;;;;;;;4.74;39.57031;94807.7;;;;
2022/03/29 03:34:55;;;;;;;14.35;8.799999;;;;;;;4.74;39.57031;94807.7;;;;
2022/03/29 03:35:55;;;;;;;14.35;8.799999;;;;;;;4.74;39.57031;94807.7;;;;
2022/03/29 03:36:57;;;;;;;14.35;8.799999;;;;;;;4.74;39.57031;94807.7;;;;
2022/03/29 03:37:57;;;;;;;14.35;8.799999;;;;;;;4.74;39.57031;94807.7;;;;
2022/03/29 03:38:57;;;;;;;14.35;8.799999;;;;;;;4.74;39.57031;94807.7;;;;
2022/03/29 03:39:58;;;;;;;14.35;8.799999;;;;;;;4.74;39.57031;94807.7;;;;
2022/03/29 03:40:59;;;;;;;14.35;8.799999;;;;;;;4.74;39.57031;94807.7;;;;
2022/03/29 03:41:59;;;;;;;14.35;8.799999;;;;;;;4.74;39.57031;94807.7;;;;
2022/03/29 03:43:00;;;;;;;13.3;8.55;;;;;;;4.76;39.69824;94798.53;;;;
2022/03/29 03:44:01;;;;;;;13.3;8.55;;;;;;;4.76;39.69824;94798.53;;;;
2022/03/29 03:45:03;;;;;;;13.3;8.55;;;;;;;4.76;39.69824;94798.53;;;;
2022/03/29 03:46:05;;;;;;;13.3;8.55;;;;;;;4.76;39.69824;94798.53;;;;
2022/03/29 03:47:07;;;;;;;13.3;8.55;;;;;;;4.76;39.69824;94798.53;;;;
2022/03/29 03:48:08;;;;;;;13.3;8.55;;;;;;;4.76;39.69824;94798.53;;;;
2022/03/29 03:49:10;;;;;;;13.3;8.55;;;;;;;4.76;39.69824;94798.53;;;;
2022/03/29 03:50:10;;;;;;;13.3;8.55;;;;;;;4.76;39.69824;94798.53;;;;
2022/03/29 03:51:11;;;;;;;13.3;8.55;;;;;;;4.76;39.69824;94798.53;;;;
2022/03/29 03:52:11;;;;;;;13.3;8.55;;;;;;;4.76;39.69824;94798.53;;;;
2022/03/29 03:53:12;;;;;;;13.05;8.599999;;;;;;;4.68;39.94727;94787.65;;;;
2022/03/29 03:54:12;;;;;;;13.05;8.599999;;;;;;;4.68;39.94727;94787.65;;;;
2022/03/29 03:55:13;;;;;;;13.05;8.599999;;;;;;;4.68;39.94727;94787.65;;;;
2022/03/29 03:56:13;;;;;;;13.05;8.599999;;;;;;;4.68;39.94727;94787.65;;;;
2022/03/29 03:57:14;;;;;;;13.05;8.599999;;;;;;;4.68;39.94727;94787.65;;;;
2022/03/29 03:58:14;;;;;;;13.05;8.599999;;;;;;;4.68;39.94727;94787.65;;;;
2022/03/29 03:59:15;;;;;;;13.05;8.599999;;;;;;;4.68;39.94727;94787.65;;;;
2022/03/29 04:00:15;;;;;;;13.05;8.599999;;;;;;;4.68;39.94727;94787.65;;;;
2022/03/29 04:01:16;;;;;;;13.05;8.599999;;;;;;;4.68;39.94727;94787.65;;;;
2022/03/29 04:02:17;;;;;;;13.05;8.599999;;;;;;;4.68;39.94727;94787.65;;;;
2022/03/29 04:03:18;;;;;;;13.05;8.599999;;;;;;;4.68;39.94727;94787.65;;;;
2022/03/29 04:04:18;;;;;;;15.8;8.049999;;;;;;;4.72;40.18652;94780.76;;;;
2022/03/29 04:05:19;;;;;;;15.8;8.049999;;;;;;;4.72;40.18652;94780.76;;;;
2022/03/29 04:06:20;;;;;;;15.8;8.049999;;;;;;;4.72;40.18652;94780.76;;;;
2022/03/29 04:07:20;;;;;;;15.8;8.049999;;;;;;;4.72;40.18652;94780.76;;;;
2022/03/29 04:08:21;;;;;;;15.8;8.049999;;;;;;;4.72;40.18652;94780.76;;;;
2022/03/29 04:09:21;;;;;;;15.8;8.049999;;;;;;;4.72;40.18652;94780.76;;;;
2022/03/29 04:10:23;;;;;;;15.8;8.049999;;;;;;;4.72;40.18652;94780.76;;;;
2022/03/29 04:11:23;;;;;;;15.8;8.049999;;;;;;;4.72;40.18652;94780.76;;;;
2022/03/29 04:12:23;;;;;;;15.8;8.049999;;;;;;;4.72;40.18652;94780.76;;;;
2022/03/29 04:13:24;;;;;;;15.8;8.049999;;;;;;;4.72;40.18652;94780.76;;;;
2022/03/29 04:14:25;;;;;;;14.35;8.549998;;;;;;;4.79;40.25684;94770.95;;;;
2022/03/29 04:15:25;;;;;;;14.35;8.549998;;;;;;;4.79;40.25684;94770.95;;;;
2022/03/29 04:16:27;;;;;;;14.35;8.549998;;;;;;;4.79;40.25684;94770.95;;;;
2022/03/29 04:17:27;;;;;;;14.35;8.549998;;;;;;;4.79;40.25684;94770.95;;;;
2022/03/29 04:18:28;;;;;;;14.35;8.549998;;;;;;;4.79;40.25684;94770.95;;;;
2022/03/29 04:19:29;;;;;;;14.35;8.549998;;;;;;;4.79;40.25684;94770.95;;;;
2022/03/29 04:20:29;;;;;;;14.35;8.549998;;;;;;;4.79;40.25684;94770.95;;;;
2022/03/29 04:21:30;;;;;;;14.35;8.549998;;;;;;;4.79;40.25684;94770.95;;;;
2022/03/29 04:22:30;;;;;;;14.35;8.549998;;;;;;;4.79;40.25684;94770.95;;;;
2022/03/29 04:23:31;;;;;;;14.35;8.549998;;;;;;;4.79;40.25684;94770.95;;;;
2022/03/29 04:24:31;;;;;;;14.35;8.549998;;;;;;;4.79;40.25684;94770.95;;;;
2022/03/29 04:25:32;;;;;;;15.5;8.799999;;;;;;;4.82;40.35547;94754.91;;;;
2022/03/29 04:26:33;;;;;;;15.5;8.799999;;;;;;;4.82;40.35547;94754.91;;;;
2022/03/29 04:27:34;;;;;;;15.5;8.799999;;;;;;;4.82;40.35547;94754.91;;;;
2022/03/29 04:28:34;;;;;;;15.5;8.799999;;;;;;;4.82;40.35547;94754.91;;;;
2022/03/29 04:29:34;;;;;;;15.5;8.799999;;;;;;;4.82;40.35547;94754.91;;;;
2022/03/29 04:30:35;;;;;;;15.5;8.799999;;;;;;;4.82;40.35547;94754.91;;;;
2022/03/29 04:31:35;;;;;;;15.5;8.799999;;;;;;;4.82;40.35547;94754.91;;;;
2022/03/29 04:32:36;;;;;;;15.5;8.799999;;;;;;;4.82;40.35547;94754.91;;;;
2022/03/29 04:33:37;;;;;;;15.5;8.799999;;;;;;;4.82;40.35547;94754.91;;;;
2022/03/29 04:34:37;;;;;;;15.5;8.799999;;;;;;;4.82;40.35547;94754.91;;;;
2022/03/29 04:35:38;;;;;;;13.1;8.399999;;;;;;;4.77;40.56445;94739.48;;;;
2022/03/29 04:36:38;;;;;;;13.1;8.399999;;;;;;;4.77;40.56445;94739.48;;;;
2022/03/29 04:37:39;;;;;;;13.1;8.399999;;;;;;;4.77;40.56445;94739.48;;;;
2022/03/29 04:38:39;;;;;;;13.1;8.399999;;;;;;;4.77;40.56445;94739.48;;;;
2022/03/29 04:39:40;;;;;;;13.1;8.399999;;;;;;;4.77;40.56445;94739.48;;;;
2022/03/29 04:40:41;;;;;;;13.1;8.399999;;;;;;;4.77;40.56445;94739.48;;;;
2022/03/29 04:41:41;;;;;;;13.1;8.399999;;;;;;;4.77;40.56445;94739.48;;;;
2022/03/29 04:42:42;;;;;;;13.1;8.399999;;;;;;;4.77;40.56445;94739.48;;;;
2022/03/29 04:43:44;;;;;;;13.1;8.399999;;;;;;;4.77;40.56445;94739.48;;;;
2022/03/29 04:44:44;;;;;;;13.1;8.399999;;;;;;;4.77;40.56445;94739.48;;;;
2022/03/29 04:45:45;;;;;;;13.1;8.399999;;;;;;;4.77;40.56445;94739.48;;;;
2022/03/29 04:46:46;;;;;;;12.6;8.35;;;;;;;4.87;40.78613;94739.03;;;;
2022/03/29 04:47:46;;;;;;;12.6;8.35;;;;;;;4.87;40.78613;94739.03;;;;
2022/03/29 04:48:47;;;;;;;12.6;8.35;;;;;;;4.87;40.78613;94739.03;;;;
2022/03/29 04:49:48;;;;;;;12.6;8.35;;;;;;;4.87;40.78613;94739.03;;;;
2022/03/29 04:50:48;;;;;;;12.6;8.35;;;;;;;4.87;40.78613;94739.03;;;;
2022/03/29 04:51:49;;;;;;;12.6;8.35;;;;;;;4.87;40.78613;94739.03;;;;
2022/03/29 04:52:49;;;;;;;12.6;8.35;;;;;;;4.87;40.78613;94739.03;;;;
2022/03/29 04:53:50;;;;;;;12.6;8.35;;;;;;;4.87;40.78613;94739.03;;;;
2022/03/29 04:54:50;;;;;;;12.6;8.35;;;;;;;4.87;40.78613;94739.03;;;;
2022/03/29 04:55:51;;;;;;;12.6;8.35;;;;;;;4.87;40.78613;94739.03;;;;
2022/03/29 04:56:52;;;;;;;12.9;8.2;;;;;;;4.94;40.90039;94732.2;;;;
2022/03/29 04:57:53;;;;;;;12.9;8.2;;;;;;;4.94;40.90039;94732.2;;;;
2022/03/29 04:58:53;;;;;;;12.9;8.2;;;;;;;4.94;40.90039;94732.2;;;;
2022/03/29 04:59:54;;;;;;;12.9;8.2;;;;;;;4.94;40.90039;94732.2;;;;
2022/03/29 05:00:54;;;;;;;12.9;8.2;;;;;;;4.94;40.90039;94732.2;;;;
2022/03/29 05:01:54;;;;;;;12.9;8.2;;;;;;;4.94;40.90039;94732.2;;;;
2022/03/29 05:02:55;;;;;;;12.9;8.2;;;;;;;4.94;40.90039;94732.2;;;;
2022/03/29 05:03:55;;;;;;;12.9;8.2;;;;;;;4.94;40.90039;94732.2;;;;
2022/03/29 05:04:56;;;;;;;12.9;8.2;;;;;;;4.94;40.90039;94732.2;;;;
2022/03/29 05:05:57;;;;;;;12.9;8.2;;;;;;;4.94;40.90039;94732.2;;;;
2022/03/29 05:06:57;;;;;;;12.9;8.2;;;;;;;4.94;40.90039;94732.2;;;;
2022/03/29 05:07:58;;;;;;;13.15;8.449999;;;;;;;5.07;41.08301;94727.7;;;;
2022/03/29 05:08:58;;;;;;;13.15;8.449999;;;;;;;5.07;41.08301;94727.7;;;;
2022/03/29 05:09:59;;;;;;;13.15;8.449999;;;;;;;5.07;41.08301;94727.7;;;;
2022/03/29 05:10:59;;;;;;;13.15;8.449999;;;;;;;5.07;41.08301;94727.7;;;;
2022/03/29 05:12:00;;;;;;;13.15;8.449999;;;;;;;5.07;41.08301;94727.7;;;;
2022/03/29 05:13:00;;;;;;;13.15;8.449999;;;;;;;5.07;41.08301;94727.7;;;;
2022/03/29 05:14:01;;;;;;;13.15;8.449999;;;;;;;5.07;41.08301;94727.7;;;;
2022/03/29 05:15:01;;;;;;;13.15;8.449999;;;;;;;5.07;41.08301;94727.7;;;;
2022/03/29 05:16:02;;;;;;;13.15;8.449999;;;;;;;5.07;41.08301;94727.7;;;;
2022/03/29 05:17:03;;;;;;;13.15;8.449999;;;;;;;5.07;41.08301;94727.7;;;;
2022/03/29 05:18:04;;;;;;;13.15;8.449999;;;;;;;5.07;41.08301;94727.7;;;;
2022/03/29 05:19:05;;;;;;;13.1;8.050001;;;;;;;5.17;41.14551;94720;;;;
2022/03/29 05:20:05;;;;;;;13.1;8.050001;;;;;;;5.17;41.14551;94720;;;;
2022/03/29 05:21:08;;;;;;;13.1;8.050001;;;;;;;5.17;41.14551;94720;;;;
2022/03/29 05:22:08;;;;;;;13.1;8.050001;;;;;;;5.17;41.14551;94720;;;;
2022/03/29 05:23:09;;;;;;;13.1;8.050001;;;;;;;5.17;41.14551;94720;;;;
2022/03/29 05:24:09;;;;;;;13.1;8.050001;;;;;;;5.17;41.14551;94720;;;;
2022/03/29 05:25:10;;;;;;;13.1;8.050001;;;;;;;5.17;41.14551;94720;;;;
2022/03/29 05:26:11;;;;;;;13.1;8.050001;;;;;;;5.17;41.14551;94720;;;;
2022/03/29 05:27:12;;;;;;;13.1;8.050001;;;;;;;5.17;41.14551;94720;;;;
2022/03/29 05:28:12;;;;;;;13.1;8.050001;;;;;;;5.17;41.14551;94720;;;;
2022/03/29 05:29:13;;;;;;;11.9;7.8;;;;;;;5.34;41.28027;94715.36;;;;
2022/03/29 05:30:13;;;;;;;11.9;7.8;;;;;;;5.34;41.28027;94715.36;;;;
2022/03/29 05:31:14;;;;;;;11.9;7.8;;;;;;;5.34;41.28027;94715.36;;;;
2022/03/29 05:32:18;;;;;;;11.9;7.8;;;;;;;5.34;41.28027;94715.36;;;;
2022/03/29 05:33:19;;;;;;;11.9;7.8;;;;;;;5.34;41.28027;94715.36;;;;
2022/03/29 05:34:19;;;;;;;11.9;7.8;;;;;;;5.34;41.28027;94715.36;;;;
2022/03/29 05:35:20;;;;;;;11.9;7.8;;;;;;;5.34;41.28027;94715.36;;;;
2022/03/29 05:36:20;;;;;;;11.9;7.8;;;;;;;5.34;41.28027;94715.36;;;;
2022/03/29 05:37:21;;;;;;;11.9;7.8;;;;;;;5.34;41.28027;94715.36;;;;
2022/03/29 05:38:22;;;;;;;11.9;7.8;;;;;;;5.34;41.28027;94715.36;;;;
2022/03/29 05:39:22;;;;;;;11.9;7.8;;;;;;;5.34;41.28027;94715.36;;;;
2022/03/29 05:40:24;;;;;;;13.45;8.25;;;;;;;5.58;41.35645;94709.17;;;;
2022/03/29 05:41:26;;;;;;;13.45;8.25;;;;;;;5.58;41.35645;94709.17;;;;
2022/03/29 05:42:27;;;;;;;13.45;8.25;;;;;;;5.58;41.35645;94709.17;;;;
2022/03/29 05:43:27;;;;;;;13.45;8.25;;;;;;;5.58;41.35645;94709.17;;;;
2022/03/29 05:44:28;;;;;;;13.45;8.25;;;;;;;5.58;41.35645;94709.17;;;;
2022/03/29 05:45:29;;;;;;;13.45;8.25;;;;;;;5.58;41.35645;94709.17;;;;